sensor_id;sensor_type;location;lat;lon;timestamp;temperature;humidity
18091;DHT22;9172;49.948;9.208;2023-04-03T00:01:36;4.60;99.90
18091;DHT22;9172;49.948;9.208;2023-04-03T00:04:05;4.70;99.90
18091;DHT22;9172;49.948;9.208;2023-04-03T00:06:34;4.80;99.90
18091;DHT22;9172;49.948;9.208;2023-04-03T00:09:03;4.80;99.90
18091;DHT22;9172;49.948;9.208;2023-04-03T00:11:32;4.80;99.90
18091;DHT22;9172;49.948;9.208;2023-04-03T00:14:00;4.80;99.90
18091;DHT22;9172;49.948;9.208;2023-04-03T00:16:29;4.70;99.90
18091;DHT22;9172;49.948;9.208;2023-04-03T00:18:57;4.70;99.90
18091;DHT22;9172;49.948;9.208;2023-04-03T00:21:26;4.70;99.90
18091;DHT22;9172;49.948;9.208;2023-04-03T00:23:55;4.60;99.90
18091;DHT22;9172;49.948;9.208;2023-04-03T00:26:25;4.40;99.90
18091;DHT22;9172;49.948;9.208;2023-04-03T00:28:53;4.40;99.90
18091;DHT22;9172;49.948;9.208;2023-04-03T00:31:22;4.50;99.90
18091;DHT22;9172;49.948;9.208;2023-04-03T00:33:51;4.50;99.90
18091;DHT22;9172;49.948;9.208;2023-04-03T00:36:19;4.50;99.90
18091;DHT22;9172;49.948;9.208;2023-04-03T00:38:49;4.50;99.90
18091;DHT22;9172;49.948;9.208;2023-04-03T00:41:17;4.40;99.90
18091;DHT22;9172;49.948;9.208;2023-04-03T00:43:47;4.30;99.90
18091;DHT22;9172;49.948;9.208;2023-04-03T00:46:16;4.30;99.90
18091;DHT22;9172;49.948;9.208;2023-04-03T00:48:47;4.40;99.90
18091;DHT22;9172;49.948;9.208;2023-04-03T00:51:19;4.40;99.90
18091;DHT22;9172;49.948;9.208;2023-04-03T00:53:49;4.50;99.90
18091;DHT22;9172;49.948;9.208;2023-04-03T00:56:21;4.40;99.90
18091;DHT22;9172;49.948;9.208;2023-04-03T00:58:53;4.40;99.90
18091;DHT22;9172;49.948;9.208;2023-04-03T01:01:24;4.50;99.90
18091;DHT22;9172;49.948;9.208;2023-04-03T01:03:53;4.50;99.90
18091;DHT22;9172;49.948;9.208;2023-04-03T01:06:26;4.50;99.90
18091;DHT22;9172;49.948;9.208;2023-04-03T01:08:55;4.50;99.90
18091;DHT22;9172;49.948;9.208;2023-04-03T01:11:24;4.40;99.90
18091;DHT22;9172;49.948;9.208;2023-04-03T01:13:54;4.50;99.90
18091;DHT22;9172;49.948;9.208;2023-04-03T01:16:23;4.40;99.90
18091;DHT22;9172;49.948;9.208;2023-04-03T01:18:55;4.50;99.90
18091;DHT22;9172;49.948;9.208;2023-04-03T01:24:43;4.50;99.90
18091;DHT22;9172;49.948;9.208;2023-04-03T01:27:14;4.50;99.90
18091;DHT22;9172;49.948;9.208;2023-04-03T01:29:43;4.40;99.90
18091;DHT22;9172;49.948;9.208;2023-04-03T01:32:12;4.40;99.90
18091;DHT22;9172;49.948;9.208;2023-04-03T01:34:41;4.40;99.90
18091;DHT22;9172;49.948;9.208;2023-04-03T01:37:11;4.40;99.90
18091;DHT22;9172;49.948;9.208;2023-04-03T01:39:40;4.40;99.90
18091;DHT22;9172;49.948;9.208;2023-04-03T01:42:09;4.40;99.90
18091;DHT22;9172;49.948;9.208;2023-04-03T01:44:38;4.40;99.90
18091;DHT22;9172;49.948;9.208;2023-04-03T01:47:07;4.50;99.90
18091;DHT22;9172;49.948;9.208;2023-04-03T01:49:36;4.40;99.90
18091;DHT22;9172;49.948;9.208;2023-04-03T01:52:05;4.40;99.90
18091;DHT22;9172;49.948;9.208;2023-04-03T01:54:34;4.40;99.90
18091;DHT22;9172;49.948;9.208;2023-04-03T01:57:03;4.30;99.90
18091;DHT22;9172;49.948;9.208;2023-04-03T01:59:33;4.30;99.90
18091;DHT22;9172;49.948;9.208;2023-04-03T02:02:04;4.30;99.90
18091;DHT22;9172;49.948;9.208;2023-04-03T02:04:33;4.30;99.90
18091;DHT22;9172;49.948;9.208;2023-04-03T02:07:03;4.40;99.90
18091;DHT22;9172;49.948;9.208;2023-04-03T02:09:32;4.40;99.90
18091;DHT22;9172;49.948;9.208;2023-04-03T02:12:01;4.40;99.90
18091;DHT22;9172;49.948;9.208;2023-04-03T02:16:59;4.40;99.90
18091;DHT22;9172;49.948;9.208;2023-04-03T02:19:30;4.40;99.90
18091;DHT22;9172;49.948;9.208;2023-04-03T02:21:59;4.40;99.90
18091;DHT22;9172;49.948;9.208;2023-04-03T02:24:28;4.40;99.90
18091;DHT22;9172;49.948;9.208;2023-04-03T02:26:57;4.40;99.90
18091;DHT22;9172;49.948;9.208;2023-04-03T02:29:27;4.50;99.90
18091;DHT22;9172;49.948;9.208;2023-04-03T02:31:56;4.50;99.90
18091;DHT22;9172;49.948;9.208;2023-04-03T02:34:26;4.50;99.90
18091;DHT22;9172;49.948;9.208;2023-04-03T02:36:56;4.40;99.90
18091;DHT22;9172;49.948;9.208;2023-04-03T02:39:24;4.40;99.90
18091;DHT22;9172;49.948;9.208;2023-04-03T02:41:54;4.50;99.90
18091;DHT22;9172;49.948;9.208;2023-04-03T02:44:23;4.50;99.90
18091;DHT22;9172;49.948;9.208;2023-04-03T02:46:52;4.40;99.90
18091;DHT22;9172;49.948;9.208;2023-04-03T02:49:21;4.50;99.90
18091;DHT22;9172;49.948;9.208;2023-04-03T02:51:50;4.40;99.90
18091;DHT22;9172;49.948;9.208;2023-04-03T02:54:19;4.50;99.90
18091;DHT22;9172;49.948;9.208;2023-04-03T02:56:50;4.50;99.90
18091;DHT22;9172;49.948;9.208;2023-04-03T02:59:20;4.50;99.90
18091;DHT22;9172;49.948;9.208;2023-04-03T03:01:48;4.50;99.90
18091;DHT22;9172;49.948;9.208;2023-04-03T03:04:18;4.40;99.90
18091;DHT22;9172;49.948;9.208;2023-04-03T03:06:48;4.40;99.90
18091;DHT22;9172;49.948;9.208;2023-04-03T03:09:18;4.40;99.90
18091;DHT22;9172;49.948;9.208;2023-04-03T03:11:47;4.40;99.90
18091;DHT22;9172;49.948;9.208;2023-04-03T03:14:15;4.40;99.90
18091;DHT22;9172;49.948;9.208;2023-04-03T03:16:44;4.40;99.90
18091;DHT22;9172;49.948;9.208;2023-04-03T03:19:13;4.40;99.90
18091;DHT22;9172;49.948;9.208;2023-04-03T03:21:42;4.30;99.90
18091;DHT22;9172;49.948;9.208;2023-04-03T03:24:11;4.20;99.90
18091;DHT22;9172;49.948;9.208;2023-04-03T03:26:40;4.20;99.90
18091;DHT22;9172;49.948;9.208;2023-04-03T03:29:09;4.20;99.90
18091;DHT22;9172;49.948;9.208;2023-04-03T03:31:38;4.20;99.90
18091;DHT22;9172;49.948;9.208;2023-04-03T03:34:07;4.30;99.90
18091;DHT22;9172;49.948;9.208;2023-04-03T03:36:35;4.30;99.90
18091;DHT22;9172;49.948;9.208;2023-04-03T03:39:05;4.30;99.90
18091;DHT22;9172;49.948;9.208;2023-04-03T03:41:33;4.40;99.90
18091;DHT22;9172;49.948;9.208;2023-04-03T03:44:03;4.40;99.90
18091;DHT22;9172;49.948;9.208;2023-04-03T03:46:32;4.40;99.90
18091;DHT22;9172;49.948;9.208;2023-04-03T03:49:02;4.30;99.90
18091;DHT22;9172;49.948;9.208;2023-04-03T03:51:31;4.40;99.90
18091;DHT22;9172;49.948;9.208;2023-04-03T03:54:00;4.40;99.90
18091;DHT22;9172;49.948;9.208;2023-04-03T03:56:29;4.40;99.90
18091;DHT22;9172;49.948;9.208;2023-04-03T03:58:58;4.40;99.90
18091;DHT22;9172;49.948;9.208;2023-04-03T04:01:27;4.40;99.90
18091;DHT22;9172;49.948;9.208;2023-04-03T04:06:35;4.40;99.90
18091;DHT22;9172;49.948;9.208;2023-04-03T04:09:05;4.40;99.90
18091;DHT22;9172;49.948;9.208;2023-04-03T04:11:34;4.40;99.90
18091;DHT22;9172;49.948;9.208;2023-04-03T04:14:04;4.40;99.90
18091;DHT22;9172;49.948;9.208;2023-04-03T04:16:33;4.30;99.90
18091;DHT22;9172;49.948;9.208;2023-04-03T04:19:03;4.30;99.90
18091;DHT22;9172;49.948;9.208;2023-04-03T04:21:31;4.20;99.90
18091;DHT22;9172;49.948;9.208;2023-04-03T04:24:00;4.20;99.90
18091;DHT22;9172;49.948;9.208;2023-04-03T04:26:29;4.20;99.90
18091;DHT22;9172;49.948;9.208;2023-04-03T04:28:58;4.10;99.90
18091;DHT22;9172;49.948;9.208;2023-04-03T04:31:27;4.00;99.90
18091;DHT22;9172;49.948;9.208;2023-04-03T04:33:56;4.10;99.90
18091;DHT22;9172;49.948;9.208;2023-04-03T04:36:24;4.10;99.90
18091;DHT22;9172;49.948;9.208;2023-04-03T04:38:53;4.00;99.90
18091;DHT22;9172;49.948;9.208;2023-04-03T04:41:22;4.00;99.90
18091;DHT22;9172;49.948;9.208;2023-04-03T04:43:51;4.00;99.90
18091;DHT22;9172;49.948;9.208;2023-04-03T04:46:20;4.00;99.90
18091;DHT22;9172;49.948;9.208;2023-04-03T04:48:49;4.00;99.90
18091;DHT22;9172;49.948;9.208;2023-04-03T04:51:18;3.90;99.90
18091;DHT22;9172;49.948;9.208;2023-04-03T04:53:46;3.90;99.90
18091;DHT22;9172;49.948;9.208;2023-04-03T04:56:16;3.80;99.90
18091;DHT22;9172;49.948;9.208;2023-04-03T04:58:45;3.80;99.90
18091;DHT22;9172;49.948;9.208;2023-04-03T05:01:14;3.80;99.90
18091;DHT22;9172;49.948;9.208;2023-04-03T05:03:43;3.80;99.90
18091;DHT22;9172;49.948;9.208;2023-04-03T05:06:12;3.70;99.90
18091;DHT22;9172;49.948;9.208;2023-04-03T05:08:41;3.60;99.90
18091;DHT22;9172;49.948;9.208;2023-04-03T05:11:09;3.60;99.90
18091;DHT22;9172;49.948;9.208;2023-04-03T05:13:38;3.50;99.90
18091;DHT22;9172;49.948;9.208;2023-04-03T05:16:07;3.50;99.90
18091;DHT22;9172;49.948;9.208;2023-04-03T05:18:36;3.50;99.90
18091;DHT22;9172;49.948;9.208;2023-04-03T05:21:05;3.40;99.90
18091;DHT22;9172;49.948;9.208;2023-04-03T05:23:34;3.40;99.90
18091;DHT22;9172;49.948;9.208;2023-04-03T05:26:03;3.30;99.90
18091;DHT22;9172;49.948;9.208;2023-04-03T05:28:33;3.30;99.90
18091;DHT22;9172;49.948;9.208;2023-04-03T05:31:06;3.20;99.90
18091;DHT22;9172;49.948;9.208;2023-04-03T05:33:35;3.30;99.90
18091;DHT22;9172;49.948;9.208;2023-04-03T05:36:05;3.30;99.90
18091;DHT22;9172;49.948;9.208;2023-04-03T05:38:34;3.30;99.90
18091;DHT22;9172;49.948;9.208;2023-04-03T05:41:02;3.30;99.90
18091;DHT22;9172;49.948;9.208;2023-04-03T05:43:31;3.30;99.90
18091;DHT22;9172;49.948;9.208;2023-04-03T05:46:02;3.30;99.90
18091;DHT22;9172;49.948;9.208;2023-04-03T05:48:30;3.30;99.90
18091;DHT22;9172;49.948;9.208;2023-04-03T05:50:59;3.30;99.90
18091;DHT22;9172;49.948;9.208;2023-04-03T05:53:29;3.40;99.90
18091;DHT22;9172;49.948;9.208;2023-04-03T05:56:01;3.40;99.90
18091;DHT22;9172;49.948;9.208;2023-04-03T05:58:30;3.40;99.90
18091;DHT22;9172;49.948;9.208;2023-04-03T06:01:00;3.40;99.90
18091;DHT22;9172;49.948;9.208;2023-04-03T06:03:30;3.40;99.90
18091;DHT22;9172;49.948;9.208;2023-04-03T06:06:00;3.20;99.90
18091;DHT22;9172;49.948;9.208;2023-04-03T06:08:30;3.30;99.90
18091;DHT22;9172;49.948;9.208;2023-04-03T06:11:00;3.20;99.90
18091;DHT22;9172;49.948;9.208;2023-04-03T06:13:30;3.30;99.90
18091;DHT22;9172;49.948;9.208;2023-04-03T06:16:00;3.40;99.90
18091;DHT22;9172;49.948;9.208;2023-04-03T06:18:29;3.50;99.90
18091;DHT22;9172;49.948;9.208;2023-04-03T06:20:59;3.60;99.90
18091;DHT22;9172;49.948;9.208;2023-04-03T06:23:30;3.60;99.90
18091;DHT22;9172;49.948;9.208;2023-04-03T06:26:00;3.60;99.90
18091;DHT22;9172;49.948;9.208;2023-04-03T06:28:30;3.80;99.90
18091;DHT22;9172;49.948;9.208;2023-04-03T06:30:59;4.00;99.90
18091;DHT22;9172;49.948;9.208;2023-04-03T06:33:28;4.00;99.90
18091;DHT22;9172;49.948;9.208;2023-04-03T06:35:58;4.10;99.90
18091;DHT22;9172;49.948;9.208;2023-04-03T06:38:27;4.20;99.90
18091;DHT22;9172;49.948;9.208;2023-04-03T06:40:55;4.20;99.90
18091;DHT22;9172;49.948;9.208;2023-04-03T06:43:24;4.20;99.90
18091;DHT22;9172;49.948;9.208;2023-04-03T06:45:54;4.20;99.90
18091;DHT22;9172;49.948;9.208;2023-04-03T06:48:23;4.10;99.90
18091;DHT22;9172;49.948;9.208;2023-04-03T06:50:53;4.20;99.90
18091;DHT22;9172;49.948;9.208;2023-04-03T06:53:22;4.30;99.90
18091;DHT22;9172;49.948;9.208;2023-04-03T06:55:52;4.30;99.90
18091;DHT22;9172;49.948;9.208;2023-04-03T06:58:21;4.50;99.90
18091;DHT22;9172;49.948;9.208;2023-04-03T07:00:51;4.60;99.90
18091;DHT22;9172;49.948;9.208;2023-04-03T07:03:19;4.70;99.90
18091;DHT22;9172;49.948;9.208;2023-04-03T07:05:48;4.80;99.90
18091;DHT22;9172;49.948;9.208;2023-04-03T07:08:18;4.80;99.90
18091;DHT22;9172;49.948;9.208;2023-04-03T07:10:46;4.70;99.90
18091;DHT22;9172;49.948;9.208;2023-04-03T07:13:16;4.70;99.90
18091;DHT22;9172;49.948;9.208;2023-04-03T07:15:44;4.80;99.90
18091;DHT22;9172;49.948;9.208;2023-04-03T07:18:14;4.90;99.90
18091;DHT22;9172;49.948;9.208;2023-04-03T07:20:44;5.00;99.90
18091;DHT22;9172;49.948;9.208;2023-04-03T07:23:13;5.10;99.90
18091;DHT22;9172;49.948;9.208;2023-04-03T07:25:44;5.20;99.90
18091;DHT22;9172;49.948;9.208;2023-04-03T07:28:13;5.20;99.90
18091;DHT22;9172;49.948;9.208;2023-04-03T07:30:45;5.00;99.90
18091;DHT22;9172;49.948;9.208;2023-04-03T07:33:15;5.10;99.90
18091;DHT22;9172;49.948;9.208;2023-04-03T07:35:45;5.20;99.90
18091;DHT22;9172;49.948;9.208;2023-04-03T07:38:14;5.30;99.90
18091;DHT22;9172;49.948;9.208;2023-04-03T07:40:47;5.40;99.90
18091;DHT22;9172;49.948;9.208;2023-04-03T07:43:18;5.50;99.90
18091;DHT22;9172;49.948;9.208;2023-04-03T07:45:48;5.40;99.90
18091;DHT22;9172;49.948;9.208;2023-04-03T07:48:19;5.60;99.90
18091;DHT22;9172;49.948;9.208;2023-04-03T07:50:49;5.80;99.90
18091;DHT22;9172;49.948;9.208;2023-04-03T07:53:18;5.80;99.90
18091;DHT22;9172;49.948;9.208;2023-04-03T07:55:48;5.90;99.90
18091;DHT22;9172;49.948;9.208;2023-04-03T07:58:19;5.90;99.90
18091;DHT22;9172;49.948;9.208;2023-04-03T08:00:48;5.90;99.90
18091;DHT22;9172;49.948;9.208;2023-04-03T08:03:18;6.00;99.90
18091;DHT22;9172;49.948;9.208;2023-04-03T08:05:49;6.00;99.90
18091;DHT22;9172;49.948;9.208;2023-04-03T08:08:20;6.00;99.90
18091;DHT22;9172;49.948;9.208;2023-04-03T08:10:51;5.80;99.90
18091;DHT22;9172;49.948;9.208;2023-04-03T08:13:21;5.70;99.90
18091;DHT22;9172;49.948;9.208;2023-04-03T08:15:51;5.80;99.90
18091;DHT22;9172;49.948;9.208;2023-04-03T08:18:20;5.90;99.90
18091;DHT22;9172;49.948;9.208;2023-04-03T08:20:50;6.10;99.90
18091;DHT22;9172;49.948;9.208;2023-04-03T08:23:19;6.20;99.90
18091;DHT22;9172;49.948;9.208;2023-04-03T08:25:48;6.00;99.90
18091;DHT22;9172;49.948;9.208;2023-04-03T08:28:19;5.90;99.90
18091;DHT22;9172;49.948;9.208;2023-04-03T08:30:47;6.10;99.90
18091;DHT22;9172;49.948;9.208;2023-04-03T08:33:19;6.00;99.90
18091;DHT22;9172;49.948;9.208;2023-04-03T08:35:47;5.90;99.90
18091;DHT22;9172;49.948;9.208;2023-04-03T08:38:17;7.50;99.90
18091;DHT22;9172;49.948;9.208;2023-04-03T08:40:46;6.00;99.90
18091;DHT22;9172;49.948;9.208;2023-04-03T08:46:03;6.20;99.90
18091;DHT22;9172;49.948;9.208;2023-04-03T08:53:54;6.20;99.90
18091;DHT22;9172;49.948;9.208;2023-04-03T08:56:22;6.30;99.90
18091;DHT22;9172;49.948;9.208;2023-04-03T09:01:35;6.40;99.90
18091;DHT22;9172;49.948;9.208;2023-04-03T09:04:10;6.50;99.90
18091;DHT22;9172;49.948;9.208;2023-04-03T09:06:39;6.60;99.90
18091;DHT22;9172;49.948;9.208;2023-04-03T09:11:51;6.50;99.90
18091;DHT22;9172;49.948;9.208;2023-04-03T09:14:24;6.30;99.90
18091;DHT22;9172;49.948;9.208;2023-04-03T09:16:55;6.30;99.90
18091;DHT22;9172;49.948;9.208;2023-04-03T09:19:31;6.20;99.90
18091;DHT22;9172;49.948;9.208;2023-04-03T09:21:59;6.20;99.90
18091;DHT22;9172;49.948;9.208;2023-04-03T09:24:30;6.30;99.90
18091;DHT22;9172;49.948;9.208;2023-04-03T09:27:03;6.30;99.90
18091;DHT22;9172;49.948;9.208;2023-04-03T09:29:32;6.30;99.90
18091;DHT22;9172;49.948;9.208;2023-04-03T09:32:11;6.20;99.90
18091;DHT22;9172;49.948;9.208;2023-04-03T09:34:37;6.20;99.90
18091;DHT22;9172;49.948;9.208;2023-04-03T09:37:06;6.30;99.90
18091;DHT22;9172;49.948;9.208;2023-04-03T09:39:50;6.30;99.90
18091;DHT22;9172;49.948;9.208;2023-04-03T09:42:22;6.20;99.90
18091;DHT22;9172;49.948;9.208;2023-04-03T09:44:56;6.20;99.90
18091;DHT22;9172;49.948;9.208;2023-04-03T09:47:26;6.00;99.90
18091;DHT22;9172;49.948;9.208;2023-04-03T09:50:15;6.10;99.90
18091;DHT22;9172;49.948;9.208;2023-04-03T09:52:41;6.00;99.90
18091;DHT22;9172;49.948;9.208;2023-04-03T09:55:16;5.80;99.90
18091;DHT22;9172;49.948;9.208;2023-04-03T09:57:45;5.90;99.90
18091;DHT22;9172;49.948;9.208;2023-04-03T10:00:23;6.00;99.90
18091;DHT22;9172;49.948;9.208;2023-04-03T10:02:54;6.10;99.90
18091;DHT22;9172;49.948;9.208;2023-04-03T10:05:33;6.30;99.90
18091;DHT22;9172;49.948;9.208;2023-04-03T10:08:26;6.40;99.90
18091;DHT22;9172;49.948;9.208;2023-04-03T10:11:12;6.40;99.90
18091;DHT22;9172;49.948;9.208;2023-04-03T10:13:57;6.20;99.90
18091;DHT22;9172;49.948;9.208;2023-04-03T10:16:31;6.20;99.90
18091;DHT22;9172;49.948;9.208;2023-04-03T10:19:07;6.20;99.90
18091;DHT22;9172;49.948;9.208;2023-04-03T10:21:40;6.00;99.90
18091;DHT22;9172;49.948;9.208;2023-04-03T10:24:12;6.10;99.90
18091;DHT22;9172;49.948;9.208;2023-04-03T10:26:47;5.80;99.90
18091;DHT22;9172;49.948;9.208;2023-04-03T10:29:27;5.80;99.90
18091;DHT22;9172;49.948;9.208;2023-04-03T10:32:01;6.00;99.90
18091;DHT22;9172;49.948;9.208;2023-04-03T10:34:32;6.20;99.90
18091;DHT22;9172;49.948;9.208;2023-04-03T10:37:05;6.30;99.90
18091;DHT22;9172;49.948;9.208;2023-04-03T10:39:39;6.40;99.90
18091;DHT22;9172;49.948;9.208;2023-04-03T10:42:12;6.00;99.90
18091;DHT22;9172;49.948;9.208;2023-04-03T10:44:48;5.80;99.90
18091;DHT22;9172;49.948;9.208;2023-04-03T10:47:19;5.90;99.90
18091;DHT22;9172;49.948;9.208;2023-04-03T10:49:54;5.90;99.90
18091;DHT22;9172;49.948;9.208;2023-04-03T10:52:27;5.90;99.90
18091;DHT22;9172;49.948;9.208;2023-04-03T10:55:02;6.00;99.90
18091;DHT22;9172;49.948;9.208;2023-04-03T10:57:33;6.20;99.90
18091;DHT22;9172;49.948;9.208;2023-04-03T11:00:05;6.40;99.90
18091;DHT22;9172;49.948;9.208;2023-04-03T11:02:39;6.50;99.90
18091;DHT22;9172;49.948;9.208;2023-04-03T11:05:15;6.40;99.90
18091;DHT22;9172;49.948;9.208;2023-04-03T11:07:46;6.40;99.90
18091;DHT22;9172;49.948;9.208;2023-04-03T11:10:20;6.40;99.90
18091;DHT22;9172;49.948;9.208;2023-04-03T11:12:51;6.60;99.90
18091;DHT22;9172;49.948;9.208;2023-04-03T11:15:21;6.90;99.90
18091;DHT22;9172;49.948;9.208;2023-04-03T11:17:53;6.90;99.90
18091;DHT22;9172;49.948;9.208;2023-04-03T11:20:26;6.90;99.90
18091;DHT22;9172;49.948;9.208;2023-04-03T11:22:58;6.90;99.90
18091;DHT22;9172;49.948;9.208;2023-04-03T11:25:30;7.10;99.90
18091;DHT22;9172;49.948;9.208;2023-04-03T11:28:02;7.30;99.90
18091;DHT22;9172;49.948;9.208;2023-04-03T11:30:33;7.30;99.90
18091;DHT22;9172;49.948;9.208;2023-04-03T11:33:24;7.40;99.70
18091;DHT22;9172;49.948;9.208;2023-04-03T11:35:57;7.50;99.40
18091;DHT22;9172;49.948;9.208;2023-04-03T11:38:28;7.60;99.50
18091;DHT22;9172;49.948;9.208;2023-04-03T11:40:59;7.50;97.20
18091;DHT22;9172;49.948;9.208;2023-04-03T11:43:28;7.40;96.70
18091;DHT22;9172;49.948;9.208;2023-04-03T11:45:59;7.20;96.60
18091;DHT22;9172;49.948;9.208;2023-04-03T11:49:03;7.10;99.00
18091;DHT22;9172;49.948;9.208;2023-04-03T11:51:41;7.20;99.10
18091;DHT22;9172;49.948;9.208;2023-04-03T11:54:47;7.00;98.70
18091;DHT22;9172;49.948;9.208;2023-04-03T12:00:52;7.00;99.90
18091;DHT22;9172;49.948;9.208;2023-04-03T12:04:07;6.90;99.80
18091;DHT22;9172;49.948;9.208;2023-04-03T12:10:16;6.90;99.90
18091;DHT22;9172;49.948;9.208;2023-04-03T12:12:57;7.10;99.80
18091;DHT22;9172;49.948;9.208;2023-04-03T12:15:54;6.60;97.50
18091;DHT22;9172;49.948;9.208;2023-04-03T12:18:57;6.60;98.70
18091;DHT22;9172;49.948;9.208;2023-04-03T12:24:27;7.10;97.80
18091;DHT22;9172;49.948;9.208;2023-04-03T12:27:09;7.20;98.30
18091;DHT22;9172;49.948;9.208;2023-04-03T12:29:42;7.30;98.50
18091;DHT22;9172;49.948;9.208;2023-04-03T12:32:14;7.40;98.20
18091;DHT22;9172;49.948;9.208;2023-04-03T12:34:51;7.50;99.90
18091;DHT22;9172;49.948;9.208;2023-04-03T12:37:29;7.60;96.80
18091;DHT22;9172;49.948;9.208;2023-04-03T12:40:07;7.60;96.40
18091;DHT22;9172;49.948;9.208;2023-04-03T12:42:55;7.60;97.20
18091;DHT22;9172;49.948;9.208;2023-04-03T12:45:20;7.60;96.90
18091;DHT22;9172;49.948;9.208;2023-04-03T12:47:51;7.60;96.20
18091;DHT22;9172;49.948;9.208;2023-04-03T12:50:27;7.50;95.80
18091;DHT22;9172;49.948;9.208;2023-04-03T12:53:00;7.50;94.90
18091;DHT22;9172;49.948;9.208;2023-04-03T12:55:30;7.50;95.20
18091;DHT22;9172;49.948;9.208;2023-04-03T12:58:13;7.60;96.50
18091;DHT22;9172;49.948;9.208;2023-04-03T13:00:42;7.60;95.80
18091;DHT22;9172;49.948;9.208;2023-04-03T13:03:21;7.50;94.30
18091;DHT22;9172;49.948;9.208;2023-04-03T13:05:52;7.50;95.30
18091;DHT22;9172;49.948;9.208;2023-04-03T13:08:21;7.50;94.20
18091;DHT22;9172;49.948;9.208;2023-04-03T13:10:54;7.50;96.10
18091;DHT22;9172;49.948;9.208;2023-04-03T13:13:23;7.60;95.20
18091;DHT22;9172;49.948;9.208;2023-04-03T13:15:53;7.70;94.10
18091;DHT22;9172;49.948;9.208;2023-04-03T13:18:25;7.60;94.00
18091;DHT22;9172;49.948;9.208;2023-04-03T13:20:56;7.60;94.10
18091;DHT22;9172;49.948;9.208;2023-04-03T13:23:25;7.60;95.10
18091;DHT22;9172;49.948;9.208;2023-04-03T13:25:54;7.60;95.70
18091;DHT22;9172;49.948;9.208;2023-04-03T13:28:25;7.60;94.30
18091;DHT22;9172;49.948;9.208;2023-04-03T13:31:04;7.60;94.10
18091;DHT22;9172;49.948;9.208;2023-04-03T13:33:34;7.60;93.80
18091;DHT22;9172;49.948;9.208;2023-04-03T13:36:08;7.70;94.00
18091;DHT22;9172;49.948;9.208;2023-04-03T13:38:39;7.70;93.50
18091;DHT22;9172;49.948;9.208;2023-04-03T13:41:24;7.60;92.20
18091;DHT22;9172;49.948;9.208;2023-04-03T13:43:53;7.70;92.10
18091;DHT22;9172;49.948;9.208;2023-04-03T13:46:27;7.60;92.20
18091;DHT22;9172;49.948;9.208;2023-04-03T13:49:17;7.70;93.80
18091;DHT22;9172;49.948;9.208;2023-04-03T13:51:28;7.70;92.40
18091;DHT22;9172;49.948;9.208;2023-04-03T13:53:59;7.70;91.40
18091;DHT22;9172;49.948;9.208;2023-04-03T13:56:32;7.80;92.00
18091;DHT22;9172;49.948;9.208;2023-04-03T13:59:22;7.80;91.30
18091;DHT22;9172;49.948;9.208;2023-04-03T14:01:54;7.70;91.20
18091;DHT22;9172;49.948;9.208;2023-04-03T14:04:25;7.60;91.90
18091;DHT22;9172;49.948;9.208;2023-04-03T14:06:56;7.60;91.50
18091;DHT22;9172;49.948;9.208;2023-04-03T14:09:26;7.60;91.40
18091;DHT22;9172;49.948;9.208;2023-04-03T14:11:58;7.70;91.90
18091;DHT22;9172;49.948;9.208;2023-04-03T14:14:30;7.70;91.40
18091;DHT22;9172;49.948;9.208;2023-04-03T14:17:01;7.70;92.10
18091;DHT22;9172;49.948;9.208;2023-04-03T14:19:32;7.80;92.60
18091;DHT22;9172;49.948;9.208;2023-04-03T14:22:10;7.90;91.80
18091;DHT22;9172;49.948;9.208;2023-04-03T14:24:35;7.90;91.50
18091;DHT22;9172;49.948;9.208;2023-04-03T14:27:10;7.80;91.60
18091;DHT22;9172;49.948;9.208;2023-04-03T14:29:39;7.80;90.80
18091;DHT22;9172;49.948;9.208;2023-04-03T14:32:10;7.80;91.70
18091;DHT22;9172;49.948;9.208;2023-04-03T14:34:39;7.80;91.60
18091;DHT22;9172;49.948;9.208;2023-04-03T14:37:12;7.80;90.90
18091;DHT22;9172;49.948;9.208;2023-04-03T14:39:41;7.70;90.90
18091;DHT22;9172;49.948;9.208;2023-04-03T14:42:14;7.70;91.10
18091;DHT22;9172;49.948;9.208;2023-04-03T14:44:43;7.70;90.80
18091;DHT22;9172;49.948;9.208;2023-04-03T14:47:14;7.70;90.70
18091;DHT22;9172;49.948;9.208;2023-04-03T14:49:43;7.80;91.50
18091;DHT22;9172;49.948;9.208;2023-04-03T14:52:19;7.80;91.90
18091;DHT22;9172;49.948;9.208;2023-04-03T14:54:48;7.80;92.50
18091;DHT22;9172;49.948;9.208;2023-04-03T14:57:17;7.90;92.40
18091;DHT22;9172;49.948;9.208;2023-04-03T14:59:47;7.90;92.90
18091;DHT22;9172;49.948;9.208;2023-04-03T15:02:28;7.80;93.20
18091;DHT22;9172;49.948;9.208;2023-04-03T15:04:58;7.90;92.40
18091;DHT22;9172;49.948;9.208;2023-04-03T15:07:28;7.80;93.00
18091;DHT22;9172;49.948;9.208;2023-04-03T15:09:59;7.80;93.10
18091;DHT22;9172;49.948;9.208;2023-04-03T15:12:29;7.80;92.90
18091;DHT22;9172;49.948;9.208;2023-04-03T15:14:58;7.80;93.30
18091;DHT22;9172;49.948;9.208;2023-04-03T15:17:26;7.70;92.60
18091;DHT22;9172;49.948;9.208;2023-04-03T15:19:55;7.80;93.20
18091;DHT22;9172;49.948;9.208;2023-04-03T15:22:24;7.70;93.10
18091;DHT22;9172;49.948;9.208;2023-04-03T15:24:53;7.80;93.20
18091;DHT22;9172;49.948;9.208;2023-04-03T15:27:22;7.80;93.30
18091;DHT22;9172;49.948;9.208;2023-04-03T15:29:52;7.70;93.50
18091;DHT22;9172;49.948;9.208;2023-04-03T15:32:20;7.80;93.70
18091;DHT22;9172;49.948;9.208;2023-04-03T15:34:50;7.80;93.50
18091;DHT22;9172;49.948;9.208;2023-04-03T15:37:20;7.80;93.30
18091;DHT22;9172;49.948;9.208;2023-04-03T15:39:48;7.70;93.20
18091;DHT22;9172;49.948;9.208;2023-04-03T15:42:18;7.70;93.30
18091;DHT22;9172;49.948;9.208;2023-04-03T15:44:46;7.70;93.60
18091;DHT22;9172;49.948;9.208;2023-04-03T15:47:15;7.70;93.50
18091;DHT22;9172;49.948;9.208;2023-04-03T15:49:44;7.60;93.60
18091;DHT22;9172;49.948;9.208;2023-04-03T15:52:13;7.70;93.80
18091;DHT22;9172;49.948;9.208;2023-04-03T15:54:42;7.60;93.30
18091;DHT22;9172;49.948;9.208;2023-04-03T15:57:11;7.60;93.50
18091;DHT22;9172;49.948;9.208;2023-04-03T15:59:41;7.50;93.90
18091;DHT22;9172;49.948;9.208;2023-04-03T16:02:12;7.50;94.00
18091;DHT22;9172;49.948;9.208;2023-04-03T16:04:41;7.50;94.00
18091;DHT22;9172;49.948;9.208;2023-04-03T16:07:10;7.50;94.40
18091;DHT22;9172;49.948;9.208;2023-04-03T16:09:39;7.50;93.80
18091;DHT22;9172;49.948;9.208;2023-04-03T16:12:08;7.50;93.90
18091;DHT22;9172;49.948;9.208;2023-04-03T16:14:37;7.50;94.10
18091;DHT22;9172;49.948;9.208;2023-04-03T16:17:06;7.40;93.90
18091;DHT22;9172;49.948;9.208;2023-04-03T16:19:35;7.40;94.30
18091;DHT22;9172;49.948;9.208;2023-04-03T16:22:04;7.40;94.00
18091;DHT22;9172;49.948;9.208;2023-04-03T16:24:34;7.40;93.40
18091;DHT22;9172;49.948;9.208;2023-04-03T16:27:03;7.40;94.10
18091;DHT22;9172;49.948;9.208;2023-04-03T16:29:32;7.30;94.20
18091;DHT22;9172;49.948;9.208;2023-04-03T16:32:02;7.30;93.80
18091;DHT22;9172;49.948;9.208;2023-04-03T16:34:30;7.30;94.00
18091;DHT22;9172;49.948;9.208;2023-04-03T16:37:00;7.20;94.20
18091;DHT22;9172;49.948;9.208;2023-04-03T16:39:29;7.20;94.50
18091;DHT22;9172;49.948;9.208;2023-04-03T16:41:59;7.20;94.80
18091;DHT22;9172;49.948;9.208;2023-04-03T16:44:29;7.10;93.40
18091;DHT22;9172;49.948;9.208;2023-04-03T16:46:59;7.10;94.30
18091;DHT22;9172;49.948;9.208;2023-04-03T16:49:28;7.10;95.20
18091;DHT22;9172;49.948;9.208;2023-04-03T16:51:59;7.10;94.40
18091;DHT22;9172;49.948;9.208;2023-04-03T16:54:28;7.10;94.30
18091;DHT22;9172;49.948;9.208;2023-04-03T16:56:58;7.00;94.00
18091;DHT22;9172;49.948;9.208;2023-04-03T16:59:28;7.00;93.40